sensor_id;sensor_type;location;lat;lon;timestamp;P1;durP1;ratioP1;P2;durP2;ratioP2
11431;SDS011;5772;50.940;6.782;2024-01-07T00:01:27;41.97;;;37.47;;
11431;SDS011;5772;50.940;6.782;2024-01-07T00:03:54;46.30;;;41.43;;
11431;SDS011;5772;50.940;6.782;2024-01-07T00:06:19;43.83;;;39.03;;
11431;SDS011;5772;50.940;6.782;2024-01-07T00:08:45;39.97;;;35.83;;
11431;SDS011;5772;50.940;6.782;2024-01-07T00:11:10;41.00;;;36.87;;
11431;SDS011;5772;50.940;6.782;2024-01-07T00:13:35;44.10;;;39.87;;
11431;SDS011;5772;50.940;6.782;2024-01-07T00:16:01;43.07;;;38.57;;
11431;SDS011;5772;50.940;6.782;2024-01-07T00:18:26;43.00;;;38.77;;
11431;SDS011;5772;50.940;6.782;2024-01-07T00:20:53;47.27;;;42.33;;
11431;SDS011;5772;50.940;6.782;2024-01-07T00:23:18;42.73;;;38.43;;
11431;SDS011;5772;50.940;6.782;2024-01-07T00:25:44;40.90;;;36.93;;
11431;SDS011;5772;50.940;6.782;2024-01-07T00:28:09;41.50;;;37.37;;
11431;SDS011;5772;50.940;6.782;2024-01-07T00:30:35;43.43;;;38.37;;
11431;SDS011;5772;50.940;6.782;2024-01-07T00:33:00;41.50;;;37.13;;
11431;SDS011;5772;50.940;6.782;2024-01-07T00:35:25;41.37;;;37.17;;
11431;SDS011;5772;50.940;6.782;2024-01-07T00:37:52;44.97;;;40.73;;
11431;SDS011;5772;50.940;6.782;2024-01-07T00:40:17;41.17;;;36.80;;
11431;SDS011;5772;50.940;6.782;2024-01-07T00:42:43;41.63;;;37.17;;
11431;SDS011;5772;50.940;6.782;2024-01-07T00:45:08;42.47;;;37.80;;
11431;SDS011;5772;50.940;6.782;2024-01-07T00:47:34;43.83;;;39.37;;
11431;SDS011;5772;50.940;6.782;2024-01-07T00:49:59;41.40;;;36.93;;
11431;SDS011;5772;50.940;6.782;2024-01-07T00:52:24;46.60;;;41.97;;
11431;SDS011;5772;50.940;6.782;2024-01-07T00:54:51;41.97;;;37.77;;
11431;SDS011;5772;50.940;6.782;2024-01-07T00:57:16;44.43;;;39.00;;
11431;SDS011;5772;50.940;6.782;2024-01-07T00:59:42;42.70;;;38.23;;
11431;SDS011;5772;50.940;6.782;2024-01-07T01:02:07;43.37;;;38.73;;
11431;SDS011;5772;50.940;6.782;2024-01-07T01:04:33;44.23;;;36.43;;
11431;SDS011;5772;50.940;6.782;2024-01-07T01:06:58;39.80;;;35.33;;
11431;SDS011;5772;50.940;6.782;2024-01-07T01:09:23;39.50;;;35.57;;
11431;SDS011;5772;50.940;6.782;2024-01-07T01:11:50;40.30;;;36.40;;
11431;SDS011;5772;50.940;6.782;2024-01-07T01:14:15;39.73;;;36.17;;
11431;SDS011;5772;50.940;6.782;2024-01-07T01:16:41;41.07;;;37.33;;
11431;SDS011;5772;50.940;6.782;2024-01-07T01:19:06;41.80;;;37.43;;
11431;SDS011;5772;50.940;6.782;2024-01-07T01:21:31;43.73;;;37.87;;
11431;SDS011;5772;50.940;6.782;2024-01-07T01:23:57;41.30;;;37.53;;
11431;SDS011;5772;50.940;6.782;2024-01-07T01:26:22;38.17;;;34.63;;
11431;SDS011;5772;50.940;6.782;2024-01-07T01:28:49;38.70;;;34.57;;
11431;SDS011;5772;50.940;6.782;2024-01-07T01:31:14;40.60;;;35.50;;
11431;SDS011;5772;50.940;6.782;2024-01-07T01:33:40;39.93;;;36.43;;
11431;SDS011;5772;50.940;6.782;2024-01-07T01:36:05;43.20;;;38.77;;
11431;SDS011;5772;50.940;6.782;2024-01-07T01:38:31;38.57;;;34.97;;
11431;SDS011;5772;50.940;6.782;2024-01-07T01:40:56;38.23;;;34.43;;
11431;SDS011;5772;50.940;6.782;2024-01-07T01:43:22;39.13;;;34.97;;
11431;SDS011;5772;50.940;6.782;2024-01-07T01:45:49;37.37;;;34.13;;
11431;SDS011;5772;50.940;6.782;2024-01-07T01:48:15;39.73;;;35.77;;
11431;SDS011;5772;50.940;6.782;2024-01-07T01:50:40;39.43;;;35.37;;
11431;SDS011;5772;50.940;6.782;2024-01-07T01:53:06;40.23;;;36.13;;
11431;SDS011;5772;50.940;6.782;2024-01-07T01:55:31;36.90;;;33.47;;
11431;SDS011;5772;50.940;6.782;2024-01-07T01:57:57;37.90;;;34.47;;
11431;SDS011;5772;50.940;6.782;2024-01-07T02:00:23;37.37;;;34.20;;
11431;SDS011;5772;50.940;6.782;2024-01-07T02:02:49;35.23;;;31.93;;
11431;SDS011;5772;50.940;6.782;2024-01-07T02:05:15;35.03;;;31.97;;
11431;SDS011;5772;50.940;6.782;2024-01-07T02:07:40;35.87;;;32.50;;
11431;SDS011;5772;50.940;6.782;2024-01-07T02:10:06;36.53;;;33.47;;
11431;SDS011;5772;50.940;6.782;2024-01-07T02:12:32;35.37;;;32.97;;
11431;SDS011;5772;50.940;6.782;2024-01-07T02:14:57;33.33;;;30.67;;
11431;SDS011;5772;50.940;6.782;2024-01-07T02:17:22;35.43;;;32.77;;
11431;SDS011;5772;50.940;6.782;2024-01-07T02:19:49;35.07;;;32.43;;
11431;SDS011;5772;50.940;6.782;2024-01-07T02:22:14;34.27;;;31.47;;
11431;SDS011;5772;50.940;6.782;2024-01-07T02:24:41;35.83;;;33.47;;
11431;SDS011;5772;50.940;6.782;2024-01-07T02:27:07;34.80;;;32.17;;
11431;SDS011;5772;50.940;6.782;2024-01-07T02:29:32;30.63;;;28.27;;
11431;SDS011;5772;50.940;6.782;2024-01-07T02:31:57;35.23;;;32.07;;
11431;SDS011;5772;50.940;6.782;2024-01-07T02:34:23;34.87;;;32.17;;
11431;SDS011;5772;50.940;6.782;2024-01-07T02:36:48;31.90;;;29.57;;
11431;SDS011;5772;50.940;6.782;2024-01-07T02:39:13;33.37;;;30.70;;
11431;SDS011;5772;50.940;6.782;2024-01-07T02:41:40;32.77;;;30.47;;
11431;SDS011;5772;50.940;6.782;2024-01-07T02:44:06;31.33;;;29.07;;
11431;SDS011;5772;50.940;6.782;2024-01-07T02:46:31;32.03;;;29.63;;
11431;SDS011;5772;50.940;6.782;2024-01-07T02:48:56;35.53;;;32.80;;
11431;SDS011;5772;50.940;6.782;2024-01-07T02:51:22;32.80;;;30.37;;
11431;SDS011;5772;50.940;6.782;2024-01-07T02:53:47;36.03;;;33.13;;
11431;SDS011;5772;50.940;6.782;2024-01-07T02:56:12;35.33;;;32.53;;
11431;SDS011;5772;50.940;6.782;2024-01-07T02:58:39;35.53;;;32.83;;
11431;SDS011;5772;50.940;6.782;2024-01-07T03:01:07;34.13;;;31.07;;
11431;SDS011;5772;50.940;6.782;2024-01-07T03:03:33;34.63;;;31.93;;
11431;SDS011;5772;50.940;6.782;2024-01-07T03:05:58;34.27;;;31.60;;
11431;SDS011;5772;50.940;6.782;2024-01-07T03:08:24;34.90;;;32.23;;
11431;SDS011;5772;50.940;6.782;2024-01-07T03:10:49;35.23;;;32.20;;
11431;SDS011;5772;50.940;6.782;2024-01-07T03:13:15;35.20;;;32.53;;
11431;SDS011;5772;50.940;6.782;2024-01-07T03:15:41;35.50;;;32.80;;
11431;SDS011;5772;50.940;6.782;2024-01-07T03:18:07;32.47;;;30.00;;
11431;SDS011;5772;50.940;6.782;2024-01-07T03:20:32;35.57;;;33.07;;
11431;SDS011;5772;50.940;6.782;2024-01-07T03:22:59;33.87;;;31.07;;
11431;SDS011;5772;50.940;6.782;2024-01-07T03:25:24;34.33;;;31.87;;
11431;SDS011;5772;50.940;6.782;2024-01-07T03:27:50;34.67;;;32.17;;
11431;SDS011;5772;50.940;6.782;2024-01-07T03:30:15;36.10;;;33.13;;
11431;SDS011;5772;50.940;6.782;2024-01-07T03:32:42;35.37;;;32.47;;
11431;SDS011;5772;50.940;6.782;2024-01-07T03:35:07;39.00;;;35.70;;
11431;SDS011;5772;50.940;6.782;2024-01-07T03:37:33;36.77;;;34.07;;
11431;SDS011;5772;50.940;6.782;2024-01-07T03:39:58;37.47;;;34.50;;
11431;SDS011;5772;50.940;6.782;2024-01-07T03:42:24;36.80;;;33.57;;
11431;SDS011;5772;50.940;6.782;2024-01-07T03:44:49;35.30;;;32.80;;
11431;SDS011;5772;50.940;6.782;2024-01-07T03:47:14;34.23;;;31.67;;
11431;SDS011;5772;50.940;6.782;2024-01-07T03:49:41;36.57;;;33.63;;
11431;SDS011;5772;50.940;6.782;2024-01-07T03:52:06;33.03;;;30.67;;
11431;SDS011;5772;50.940;6.782;2024-01-07T03:54:32;34.87;;;32.50;;
11431;SDS011;5772;50.940;6.782;2024-01-07T03:56:57;35.10;;;32.50;;
11431;SDS011;5772;50.940;6.782;2024-01-07T03:59:23;36.23;;;33.53;;
11431;SDS011;5772;50.940;6.782;2024-01-07T04:01:48;37.37;;;34.37;;
11431;SDS011;5772;50.940;6.782;2024-01-07T04:04:14;36.17;;;33.37;;
11431;SDS011;5772;50.940;6.782;2024-01-07T04:06:40;35.87;;;33.13;;
11431;SDS011;5772;50.940;6.782;2024-01-07T04:09:06;38.53;;;35.70;;
11431;SDS011;5772;50.940;6.782;2024-01-07T04:11:31;36.83;;;33.80;;
11431;SDS011;5772;50.940;6.782;2024-01-07T04:13:56;36.67;;;33.93;;
11431;SDS011;5772;50.940;6.782;2024-01-07T04:16:22;37.43;;;34.57;;
11431;SDS011;5772;50.940;6.782;2024-01-07T04:18:47;34.97;;;31.87;;
11431;SDS011;5772;50.940;6.782;2024-01-07T04:21:12;36.00;;;32.93;;
11431;SDS011;5772;50.940;6.782;2024-01-07T04:23:39;34.87;;;31.90;;
11431;SDS011;5772;50.940;6.782;2024-01-07T04:26:05;34.83;;;32.07;;
11431;SDS011;5772;50.940;6.782;2024-01-07T04:28:30;36.23;;;33.47;;
11431;SDS011;5772;50.940;6.782;2024-01-07T04:30:55;37.10;;;34.30;;
11431;SDS011;5772;50.940;6.782;2024-01-07T04:33:21;36.17;;;33.47;;
11431;SDS011;5772;50.940;6.782;2024-01-07T04:35:46;35.40;;;32.47;;
11431;SDS011;5772;50.940;6.782;2024-01-07T04:38:11;39.27;;;36.20;;
11431;SDS011;5772;50.940;6.782;2024-01-07T04:40:38;40.37;;;37.13;;
11431;SDS011;5772;50.940;6.782;2024-01-07T04:43:03;40.30;;;37.13;;
11431;SDS011;5772;50.940;6.782;2024-01-07T04:45:29;36.93;;;33.90;;
11431;SDS011;5772;50.940;6.782;2024-01-07T04:47:54;38.20;;;34.70;;
11431;SDS011;5772;50.940;6.782;2024-01-07T04:50:20;36.63;;;33.30;;
11431;SDS011;5772;50.940;6.782;2024-01-07T04:52:45;35.97;;;32.87;;
11431;SDS011;5772;50.940;6.782;2024-01-07T04:55:10;37.40;;;34.07;;
11431;SDS011;5772;50.940;6.782;2024-01-07T04:57:37;38.63;;;35.10;;
11431;SDS011;5772;50.940;6.782;2024-01-07T05:00:03;38.67;;;35.47;;
11431;SDS011;5772;50.940;6.782;2024-01-07T05:02:29;36.43;;;33.37;;
11431;SDS011;5772;50.940;6.782;2024-01-07T05:04:54;38.27;;;35.13;;
11431;SDS011;5772;50.940;6.782;2024-01-07T05:07:20;39.90;;;36.57;;
11431;SDS011;5772;50.940;6.782;2024-01-07T05:09:45;37.73;;;34.60;;
11431;SDS011;5772;50.940;6.782;2024-01-07T05:12:11;40.63;;;36.83;;
11431;SDS011;5772;50.940;6.782;2024-01-07T05:14:37;36.07;;;33.43;;
11431;SDS011;5772;50.940;6.782;2024-01-07T05:17:03;38.43;;;35.10;;
11431;SDS011;5772;50.940;6.782;2024-01-07T05:19:28;36.63;;;33.03;;
11431;SDS011;5772;50.940;6.782;2024-01-07T05:21:54;38.27;;;35.17;;
11431;SDS011;5772;50.940;6.782;2024-01-07T05:24:19;37.73;;;35.07;;
11431;SDS011;5772;50.940;6.782;2024-01-07T05:26:45;33.73;;;31.23;;
11431;SDS011;5772;50.940;6.782;2024-01-07T05:29:10;34.23;;;31.10;;
11431;SDS011;5772;50.940;6.782;2024-01-07T05:31:37;33.87;;;31.43;;
11431;SDS011;5772;50.940;6.782;2024-01-07T05:34:03;37.60;;;34.73;;
11431;SDS011;5772;50.940;6.782;2024-01-07T05:36:28;36.00;;;33.27;;
11431;SDS011;5772;50.940;6.782;2024-01-07T05:38:53;36.57;;;33.70;;
11431;SDS011;5772;50.940;6.782;2024-01-07T05:41:19;35.17;;;32.20;;
11431;SDS011;5772;50.940;6.782;2024-01-07T05:43:44;37.83;;;34.93;;
11431;SDS011;5772;50.940;6.782;2024-01-07T05:46:10;37.37;;;34.27;;
11431;SDS011;5772;50.940;6.782;2024-01-07T05:48:41;40.27;;;37.13;;
11431;SDS011;5772;50.940;6.782;2024-01-07T05:51:07;34.90;;;32.03;;
11431;SDS011;5772;50.940;6.782;2024-01-07T05:53:33;36.60;;;33.43;;
11431;SDS011;5772;50.940;6.782;2024-01-07T05:55:59;39.10;;;35.67;;
11431;SDS011;5772;50.940;6.782;2024-01-07T05:58:25;39.10;;;35.77;;
11431;SDS011;5772;50.940;6.782;2024-01-07T06:00:50;35.50;;;32.47;;
11431;SDS011;5772;50.940;6.782;2024-01-07T06:03:15;38.90;;;35.43;;
11431;SDS011;5772;50.940;6.782;2024-01-07T06:05:42;37.40;;;34.33;;
11431;SDS011;5772;50.940;6.782;2024-01-07T06:08:07;37.97;;;34.43;;
11431;SDS011;5772;50.940;6.782;2024-01-07T06:10:33;39.73;;;36.10;;
11431;SDS011;5772;50.940;6.782;2024-01-07T06:12:58;39.13;;;36.13;;
11431;SDS011;5772;50.940;6.782;2024-01-07T06:15:23;39.03;;;35.73;;
11431;SDS011;5772;50.940;6.782;2024-01-07T06:17:49;37.87;;;34.60;;
11431;SDS011;5772;50.940;6.782;2024-01-07T06:20:14;36.43;;;33.47;;
11431;SDS011;5772;50.940;6.782;2024-01-07T06:22:41;38.60;;;35.50;;
11431;SDS011;5772;50.940;6.782;2024-01-07T06:25:06;39.93;;;36.57;;
11431;SDS011;5772;50.940;6.782;2024-01-07T06:27:32;39.03;;;36.07;;
11431;SDS011;5772;50.940;6.782;2024-01-07T06:29:57;39.83;;;36.43;;
11431;SDS011;5772;50.940;6.782;2024-01-07T06:32:23;38.17;;;35.40;;
11431;SDS011;5772;50.940;6.782;2024-01-07T06:34:48;38.30;;;35.37;;
11431;SDS011;5772;50.940;6.782;2024-01-07T06:37:13;40.67;;;37.70;;
11431;SDS011;5772;50.940;6.782;2024-01-07T06:39:40;41.53;;;38.27;;
11431;SDS011;5772;50.940;6.782;2024-01-07T06:42:06;40.67;;;37.77;;
11431;SDS011;5772;50.940;6.782;2024-01-07T06:44:31;42.60;;;39.33;;
11431;SDS011;5772;50.940;6.782;2024-01-07T06:46:56;40.47;;;37.50;;
11431;SDS011;5772;50.940;6.782;2024-01-07T06:49:22;43.63;;;40.80;;
11431;SDS011;5772;50.940;6.782;2024-01-07T06:51:47;44.60;;;41.60;;
11431;SDS011;5772;50.940;6.782;2024-01-07T06:54:13;42.27;;;39.17;;
11431;SDS011;5772;50.940;6.782;2024-01-07T06:56:39;43.90;;;41.13;;
11431;SDS011;5772;50.940;6.782;2024-01-07T06:59:05;44.13;;;41.00;;
11431;SDS011;5772;50.940;6.782;2024-01-07T07:01:30;47.07;;;43.80;;
11431;SDS011;5772;50.940;6.782;2024-01-07T07:03:55;44.33;;;41.10;;
11431;SDS011;5772;50.940;6.782;2024-01-07T07:06:21;46.63;;;43.00;;
11431;SDS011;5772;50.940;6.782;2024-01-07T07:08:46;47.77;;;44.17;;
11431;SDS011;5772;50.940;6.782;2024-01-07T07:11:11;46.00;;;42.73;;
11431;SDS011;5772;50.940;6.782;2024-01-07T07:13:38;47.40;;;43.97;;
11431;SDS011;5772;50.940;6.782;2024-01-07T07:16:04;46.30;;;43.03;;
11431;SDS011;5772;50.940;6.782;2024-01-07T07:18:30;44.90;;;41.83;;
11431;SDS011;5772;50.940;6.782;2024-01-07T07:20:55;45.97;;;42.57;;
11431;SDS011;5772;50.940;6.782;2024-01-07T07:23:21;49.80;;;46.43;;
11431;SDS011;5772;50.940;6.782;2024-01-07T07:25:46;45.90;;;42.70;;
11431;SDS011;5772;50.940;6.782;2024-01-07T07:28:11;46.60;;;43.30;;
11431;SDS011;5772;50.940;6.782;2024-01-07T07:30:38;47.20;;;43.70;;
11431;SDS011;5772;50.940;6.782;2024-01-07T07:33:03;45.20;;;42.10;;
11431;SDS011;5772;50.940;6.782;2024-01-07T07:35:29;47.90;;;44.33;;
11431;SDS011;5772;50.940;6.782;2024-01-07T07:37:54;46.70;;;43.30;;
11431;SDS011;5772;50.940;6.782;2024-01-07T07:40:20;46.10;;;42.90;;
11431;SDS011;5772;50.940;6.782;2024-01-07T07:42:45;46.80;;;43.63;;
11431;SDS011;5772;50.940;6.782;2024-01-07T07:45:10;49.30;;;46.03;;
11431;SDS011;5772;50.940;6.782;2024-01-07T07:47:37;50.30;;;46.97;;
11431;SDS011;5772;50.940;6.782;2024-01-07T07:50:03;45.00;;;41.70;;
11431;SDS011;5772;50.940;6.782;2024-01-07T07:52:29;44.30;;;41.27;;
11431;SDS011;5772;50.940;6.782;2024-01-07T07:54:55;46.43;;;43.40;;
11431;SDS011;5772;50.940;6.782;2024-01-07T07:57:20;44.57;;;41.50;;
11431;SDS011;5772;50.940;6.782;2024-01-07T07:59:46;46.10;;;42.43;;
11431;SDS011;5772;50.940;6.782;2024-01-07T08:02:11;47.30;;;44.20;;
11431;SDS011;5772;50.940;6.782;2024-01-07T08:04:38;44.43;;;41.20;;
11431;SDS011;5772;50.940;6.782;2024-01-07T08:07:04;43.37;;;40.20;;
11431;SDS011;5772;50.940;6.782;2024-01-07T08:09:29;42.07;;;39.27;;
11431;SDS011;5772;50.940;6.782;2024-01-07T08:11:54;43.40;;;40.33;;
11431;SDS011;5772;50.940;6.782;2024-01-07T08:14:20;45.53;;;42.27;;
11431;SDS011;5772;50.940;6.782;2024-01-07T08:16:45;45.00;;;41.80;;
11431;SDS011;5772;50.940;6.782;2024-01-07T08:19:11;42.17;;;39.23;;
11431;SDS011;5772;50.940;6.782;2024-01-07T08:21:37;42.37;;;39.17;;
11431;SDS011;5772;50.940;6.782;2024-01-07T08:24:03;42.17;;;39.10;;
11431;SDS011;5772;50.940;6.782;2024-01-07T08:26:29;43.33;;;40.33;;
11431;SDS011;5772;50.940;6.782;2024-01-07T08:28:54;41.50;;;38.47;;
11431;SDS011;5772;50.940;6.782;2024-01-07T08:31:19;44.13;;;41.00;;
11431;SDS011;5772;50.940;6.782;2024-01-07T08:33:45;42.23;;;38.93;;
11431;SDS011;5772;50.940;6.782;2024-01-07T08:36:10;43.10;;;40.07;;
11431;SDS011;5772;50.940;6.782;2024-01-07T08:38:37;42.47;;;39.23;;
11431;SDS011;5772;50.940;6.782;2024-01-07T08:41:02;41.60;;;38.60;;
11431;SDS011;5772;50.940;6.782;2024-01-07T08:43:28;42.57;;;39.73;;
11431;SDS011;5772;50.940;6.782;2024-01-07T08:45:53;44.93;;;41.87;;
11431;SDS011;5772;50.940;6.782;2024-01-07T08:48:18;43.93;;;40.50;;
11431;SDS011;5772;50.940;6.782;2024-01-07T08:50:44;43.67;;;40.67;;
11431;SDS011;5772;50.940;6.782;2024-01-07T08:53:09;44.00;;;41.00;;
11431;SDS011;5772;50.940;6.782;2024-01-07T08:55:36;45.90;;;42.40;;
11431;SDS011;5772;50.940;6.782;2024-01-07T08:58:01;42.63;;;39.63;;
11431;SDS011;5772;50.940;6.782;2024-01-07T09:00:26;42.77;;;39.57;;
11431;SDS011;5772;50.940;6.782;2024-01-07T09:02:52;44.37;;;41.23;;
11431;SDS011;5772;50.940;6.782;2024-01-07T09:05:17;44.63;;;41.23;;
11431;SDS011;5772;50.940;6.782;2024-01-07T09:07:43;42.80;;;39.33;;
11431;SDS011;5772;50.940;6.782;2024-01-07T09:10:08;46.27;;;42.73;;
11431;SDS011;5772;50.940;6.782;2024-01-07T09:12:35;44.93;;;42.00;;
11431;SDS011;5772;50.940;6.782;2024-01-07T09:15:01;43.53;;;40.27;;
11431;SDS011;5772;50.940;6.782;2024-01-07T09:17:26;45.37;;;42.23;;
11431;SDS011;5772;50.940;6.782;2024-01-07T09:19:52;45.37;;;42.20;;
11431;SDS011;5772;50.940;6.782;2024-01-07T09:22:17;44.03;;;40.90;;
11431;SDS011;5772;50.940;6.782;2024-01-07T09:24:42;43.27;;;40.20;;
11431;SDS011;5772;50.940;6.782;2024-01-07T09:27:08;48.90;;;45.70;;
11431;SDS011;5772;50.940;6.782;2024-01-07T09:29:34;42.97;;;40.07;;
11431;SDS011;5772;50.940;6.782;2024-01-07T09:32:00;46.60;;;43.57;;
11431;SDS011;5772;50.940;6.782;2024-01-07T09:34:25;44.87;;;41.60;;
11431;SDS011;5772;50.940;6.782;2024-01-07T09:36:50;45.47;;;42.17;;
11431;SDS011;5772;50.940;6.782;2024-01-07T09:39:16;44.33;;;41.40;;
11431;SDS011;5772;50.940;6.782;2024-01-07T09:41:41;45.77;;;42.13;;
11431;SDS011;5772;50.940;6.782;2024-01-07T09:44:07;46.53;;;43.27;;
11431;SDS011;5772;50.940;6.782;2024-01-07T09:46:34;45.57;;;42.53;;
11431;SDS011;5772;50.940;6.782;2024-01-07T09:49:02;44.03;;;40.97;;
11431;SDS011;5772;50.940;6.782;2024-01-07T09:51:27;42.73;;;40.00;;
11431;SDS011;5772;50.940;6.782;2024-01-07T09:53:57;40.83;;;38.17;;
11431;SDS011;5772;50.940;6.782;2024-01-07T09:56:25;43.60;;;40.77;;
11431;SDS011;5772;50.940;6.782;2024-01-07T09:58:50;41.47;;;38.83;;
11431;SDS011;5772;50.940;6.782;2024-01-07T10:01:16;39.07;;;36.33;;
11431;SDS011;5772;50.940;6.782;2024-01-07T10:03:43;42.00;;;39.17;;
11431;SDS011;5772;50.940;6.782;2024-01-07T10:06:10;41.27;;;37.77;;
11431;SDS011;5772;50.940;6.782;2024-01-07T10:08:35;44.73;;;41.57;;
11431;SDS011;5772;50.940;6.782;2024-01-07T10:11:00;42.53;;;39.60;;
11431;SDS011;5772;50.940;6.782;2024-01-07T10:13:26;45.27;;;42.07;;
11431;SDS011;5772;50.940;6.782;2024-01-07T10:15:51;45.57;;;42.77;;
11431;SDS011;5772;50.940;6.782;2024-01-07T10:18:18;41.03;;;38.40;;
11431;SDS011;5772;50.940;6.782;2024-01-07T10:20:45;42.13;;;39.23;;
11431;SDS011;5772;50.940;6.782;2024-01-07T10:23:10;46.67;;;43.00;;
11431;SDS011;5772;50.940;6.782;2024-01-07T10:25:35;44.70;;;41.77;;
11431;SDS011;5772;50.940;6.782;2024-01-07T10:28:01;44.30;;;41.53;;
11431;SDS011;5772;50.940;6.782;2024-01-07T10:30:27;42.87;;;40.40;;
11431;SDS011;5772;50.940;6.782;2024-01-07T10:32:55;42.77;;;40.17;;
11431;SDS011;5772;50.940;6.782;2024-01-07T10:35:20;41.07;;;38.60;;
11431;SDS011;5772;50.940;6.782;2024-01-07T10:37:48;48.37;;;45.23;;
11431;SDS011;5772;50.940;6.782;2024-01-07T10:40:13;44.60;;;41.90;;
11431;SDS011;5772;50.940;6.782;2024-01-07T10:42:39;43.30;;;40.77;;
11431;SDS011;5772;50.940;6.782;2024-01-07T10:45:05;42.53;;;40.17;;
11431;SDS011;5772;50.940;6.782;2024-01-07T10:47:32;40.43;;;38.30;;
11431;SDS011;5772;50.940;6.782;2024-01-07T10:49:59;42.40;;;39.97;;
11431;SDS011;5772;50.940;6.782;2024-01-07T10:52:27;42.87;;;40.37;;
11431;SDS011;5772;50.940;6.782;2024-01-07T10:54:54;44.40;;;41.77;;
11431;SDS011;5772;50.940;6.782;2024-01-07T10:57:24;45.63;;;43.10;;
11431;SDS011;5772;50.940;6.782;2024-01-07T10:59:53;47.17;;;44.37;;
11431;SDS011;5772;50.940;6.782;2024-01-07T11:02:18;48.47;;;45.70;;
11431;SDS011;5772;50.940;6.782;2024-01-07T11:04:45;45.60;;;42.70;;
11431;SDS011;5772;50.940;6.782;2024-01-07T11:07:16;44.50;;;41.53;;
11431;SDS011;5772;50.940;6.782;2024-01-07T11:09:48;47.07;;;44.37;;
11431;SDS011;5772;50.940;6.782;2024-01-07T11:12:21;45.50;;;42.80;;
11431;SDS011;5772;50.940;6.782;2024-01-07T11:14:46;46.93;;;44.13;;
11431;SDS011;5772;50.940;6.782;2024-01-07T11:17:12;45.27;;;42.40;;
11431;SDS011;5772;50.940;6.782;2024-01-07T11:19:37;47.13;;;44.10;;
11431;SDS011;5772;50.940;6.782;2024-01-07T11:22:21;44.27;;;41.57;;
11431;SDS011;5772;50.940;6.782;2024-01-07T11:24:47;48.03;;;45.30;;
11431;SDS011;5772;50.940;6.782;2024-01-07T11:27:14;41.83;;;39.27;;
11431;SDS011;5772;50.940;6.782;2024-01-07T11:29:40;42.50;;;39.67;;
11431;SDS011;5772;50.940;6.782;2024-01-07T11:32:06;40.53;;;37.93;;
11431;SDS011;5772;50.940;6.782;2024-01-07T11:34:40;43.40;;;40.67;;
11431;SDS011;5772;50.940;6.782;2024-01-07T11:37:07;42.03;;;39.43;;
11431;SDS011;5772;50.940;6.782;2024-01-07T11:39:35;41.17;;;38.83;;
11431;SDS011;5772;50.940;6.782;2024-01-07T11:42:00;41.50;;;38.90;;
11431;SDS011;5772;50.940;6.782;2024-01-07T11:44:27;41.70;;;39.20;;
11431;SDS011;5772;50.940;6.782;2024-01-07T11:46:53;39.50;;;37.07;;
11431;SDS011;5772;50.940;6.782;2024-01-07T11:49:18;42.70;;;40.10;;
11431;SDS011;5772;50.940;6.782;2024-01-07T11:51:43;45.10;;;42.17;;
11431;SDS011;5772;50.940;6.782;2024-01-07T11:54:09;43.13;;;40.83;;
11431;SDS011;5772;50.940;6.782;2024-01-07T11:56:35;41.93;;;39.37;;
11431;SDS011;5772;50.940;6.782;2024-01-07T11:59:00;42.83;;;39.83;;
11431;SDS011;5772;50.940;6.782;2024-01-07T12:01:27;43.73;;;40.97;;
11431;SDS011;5772;50.940;6.782;2024-01-07T12:03:52;45.20;;;42.53;;
11431;SDS011;5772;50.940;6.782;2024-01-07T12:06:18;44.53;;;41.93;;
11431;SDS011;5772;50.940;6.782;2024-01-07T12:08:44;47.53;;;44.37;;
11431;SDS011;5772;50.940;6.782;2024-01-07T12:11:10;44.43;;;41.73;;
11431;SDS011;5772;50.940;6.782;2024-01-07T12:13:36;44.70;;;41.93;;
11431;SDS011;5772;50.940;6.782;2024-01-07T12:16:02;43.27;;;40.53;;
11431;SDS011;5772;50.940;6.782;2024-01-07T12:18:29;42.70;;;40.30;;
11431;SDS011;5772;50.940;6.782;2024-01-07T12:20:55;45.17;;;42.33;;
11431;SDS011;5772;50.940;6.782;2024-01-07T12:23:21;43.30;;;40.83;;
11431;SDS011;5772;50.940;6.782;2024-01-07T12:25:46;42.63;;;40.07;;
11431;SDS011;5772;50.940;6.782;2024-01-07T12:28:11;43.73;;;41.40;;
11431;SDS011;5772;50.940;6.782;2024-01-07T12:30:37;44.27;;;41.83;;
11431;SDS011;5772;50.940;6.782;2024-01-07T12:33:03;47.30;;;44.30;;
11431;SDS011;5772;50.940;6.782;2024-01-07T12:35:30;44.73;;;41.93;;
11431;SDS011;5772;50.940;6.782;2024-01-07T12:37:55;45.53;;;43.00;;
11431;SDS011;5772;50.940;6.782;2024-01-07T12:40:21;46.30;;;43.63;;
11431;SDS011;5772;50.940;6.782;2024-01-07T12:42:46;46.60;;;44.07;;
11431;SDS011;5772;50.940;6.782;2024-01-07T12:45:12;45.50;;;42.93;;
11431;SDS011;5772;50.940;6.782;2024-01-07T12:47:37;44.47;;;41.87;;
11431;SDS011;5772;50.940;6.782;2024-01-07T12:50:03;46.57;;;43.97;;
11431;SDS011;5772;50.940;6.782;2024-01-07T12:52:30;43.77;;;41.37;;
11431;SDS011;5772;50.940;6.782;2024-01-07T12:54:55;42.47;;;39.93;;
11431;SDS011;5772;50.940;6.782;2024-01-07T12:57:21;43.93;;;41.37;;
11431;SDS011;5772;50.940;6.782;2024-01-07T12:59:46;44.90;;;42.33;;
11431;SDS011;5772;50.940;6.782;2024-01-07T13:02:11;45.63;;;42.93;;
11431;SDS011;5772;50.940;6.782;2024-01-07T13:04:37;42.70;;;40.30;;
11431;SDS011;5772;50.940;6.782;2024-01-07T13:07:02;43.37;;;41.10;;
11431;SDS011;5772;50.940;6.782;2024-01-07T13:09:29;40.57;;;38.17;;
11431;SDS011;5772;50.940;6.782;2024-01-07T13:11:55;40.33;;;38.17;;
11431;SDS011;5772;50.940;6.782;2024-01-07T13:14:20;38.77;;;36.80;;
11431;SDS011;5772;50.940;6.782;2024-01-07T13:16:45;35.60;;;33.50;;
11431;SDS011;5772;50.940;6.782;2024-01-07T13:19:11;34.67;;;32.87;;
11431;SDS011;5772;50.940;6.782;2024-01-07T13:21:36;32.80;;;31.00;;
11431;SDS011;5772;50.940;6.782;2024-01-07T13:24:03;31.07;;;29.57;;
11431;SDS011;5772;50.940;6.782;2024-01-07T13:26:30;33.57;;;31.63;;
11431;SDS011;5772;50.940;6.782;2024-01-07T13:28:55;32.70;;;30.90;;
11431;SDS011;5772;50.940;6.782;2024-01-07T13:31:20;33.57;;;31.77;;
11431;SDS011;5772;50.940;6.782;2024-01-07T13:33:46;35.23;;;33.37;;
11431;SDS011;5772;50.940;6.782;2024-01-07T13:36:11;38.17;;;36.10;;
11431;SDS011;5772;50.940;6.782;2024-01-07T13:38:36;35.80;;;33.77;;
11431;SDS011;5772;50.940;6.782;2024-01-07T13:41:02;36.43;;;34.33;;
11431;SDS011;5772;50.940;6.782;2024-01-07T13:43:29;33.07;;;31.10;;
11431;SDS011;5772;50.940;6.782;2024-01-07T13:45:54;31.30;;;29.50;;
11431;SDS011;5772;50.940;6.782;2024-01-07T13:48:19;31.40;;;29.50;;
11431;SDS011;5772;50.940;6.782;2024-01-07T13:50:45;30.77;;;28.93;;
11431;SDS011;5772;50.940;6.782;2024-01-07T13:53:10;29.73;;;28.03;;
11431;SDS011;5772;50.940;6.782;2024-01-07T13:55:36;29.97;;;28.17;;
11431;SDS011;5772;50.940;6.782;2024-01-07T13:58:01;29.27;;;27.63;;
11431;SDS011;5772;50.940;6.782;2024-01-07T14:00:28;28.33;;;26.77;;
11431;SDS011;5772;50.940;6.782;2024-01-07T14:02:53;28.33;;;26.83;;
11431;SDS011;5772;50.940;6.782;2024-01-07T14:05:18;30.40;;;28.63;;
11431;SDS011;5772;50.940;6.782;2024-01-07T14:07:44;28.30;;;26.67;;
11431;SDS011;5772;50.940;6.782;2024-01-07T14:10:09;27.30;;;25.80;;
11431;SDS011;5772;50.940;6.782;2024-01-07T14:12:35;27.33;;;25.93;;
11431;SDS011;5772;50.940;6.782;2024-01-07T14:15:00;27.80;;;26.30;;
11431;SDS011;5772;50.940;6.782;2024-01-07T14:17:27;28.23;;;26.57;;
11431;SDS011;5772;50.940;6.782;2024-01-07T14:19:52;28.47;;;27.07;;
11431;SDS011;5772;50.940;6.782;2024-01-07T14:22:17;30.00;;;28.13;;
11431;SDS011;5772;50.940;6.782;2024-01-07T14:24:43;27.60;;;25.97;;